Time;durP1;ratioP1;P1;durP2;ratioP2;P2;SDS_P1;SDS_P2;PMS_P1;PMS_P2;Temp;Humidity;BMP_temperature;BMP_pressure;BME280_temperature;BME280_humidity;BME280_pressure;Samples;Min_cycle;Max_cycle;Signal;HPM_P1;HPM_P2
2021/05/27 00:01:43;;;;;;;4.20;3.45;;;;;;;17.17;93.39;101440.27;1726921;82;20972;-73
2021/05/27 00:04:10;;;;;;;3.95;3.50;;;;;;;17.14;93.59;101441.36;1727255;83;20861;-72
2021/05/27 00:06:37;;;;;;;3.55;3.15;;;;;;;17.11;93.75;101445.54;1727038;82;21092;-73
2021/05/27 00:09:04;;;;;;;3.92;3.52;;;;;;;17.08;94.04;101439.23;1727144;83;21584;-73
2021/05/27 00:11:31;;;;;;;5.25;3.58;;;;;;;17.08;94.15;101447.10;1727165;82;20920;-73
2021/05/27 00:14:00;;;;;;;4.65;4.25;;;;;;;17.06;94.22;101446.87;1727114;83;20940;-73
2021/05/27 00:16:27;;;;;;;5.67;5.17;;;;;;;17.02;94.11;101452.84;1727136;82;20948;-73
2021/05/27 00:18:56;;;;;;;6.08;4.90;;;;;;;17.00;94.09;101460.01;1729853;82;22316;-72
2021/05/27 00:21:23;;;;;;;6.22;4.87;;;;;;;16.99;94.15;101462.73;1730541;82;21405;-73
2021/05/27 00:23:51;;;;;;;6.30;5.15;;;;;;;16.98;94.17;101467.14;1731249;82;20897;-73
2021/05/27 00:26:17;;;;;;;5.62;4.97;;;;;;;16.96;94.18;101466.92;1731098;82;20929;-73
2021/05/27 00:28:46;;;;;;;4.90;4.47;;;;;;;16.95;94.26;101462.14;1729271;81;21518;-73
2021/05/27 00:31:13;;;;;;;5.70;5.05;;;;;;;16.94;94.35;101463.13;1727246;83;21024;-73
2021/05/27 00:33:40;;;;;;;4.72;4.22;;;;;;;16.92;94.42;101467.16;1726954;83;20908;-73
2021/05/27 00:36:08;;;;;;;5.05;4.65;;;;;;;16.92;94.56;101465.02;1727125;83;20956;-73
2021/05/27 00:38:35;;;;;;;6.72;5.40;;;;;;;16.93;94.79;101458.36;1727034;83;21015;-73
2021/05/27 00:41:03;;;;;;;5.28;4.87;;;;;;;16.95;94.72;101463.46;1726989;82;20873;-73
2021/05/27 00:43:30;;;;;;;5.15;4.65;;;;;;;16.96;94.72;101467.76;1727037;82;21852;-73
2021/05/27 00:45:59;;;;;;;4.90;4.28;;;;;;;16.96;94.72;101463.83;1726873;82;21027;-72
2021/05/27 00:51:13;;;;;;;5.60;5.10;;;;;;;16.97;94.78;101465.97;1727143;82;20968;-72
2021/05/27 00:53:40;;;;;;;8.28;5.72;;;;;;;16.97;94.79;101464.66;1727045;83;20940;-73
2021/05/27 00:56:09;;;;;;;5.65;5.10;;;;;;;16.95;94.88;101460.84;1726957;82;21554;-73
2021/05/27 00:58:36;;;;;;;6.85;4.97;;;;;;;16.93;94.81;101461.45;1694442;83;21012;-73
2021/05/27 01:01:04;;;;;;;5.65;5.08;;;;;;;16.92;94.69;101457.16;1726935;82;21023;-73
2021/05/27 01:03:31;;;;;;;5.47;4.97;;;;;;;16.90;94.73;101457.29;1727028;82;20892;-72
2021/05/27 01:05:58;;;;;;;6.22;5.17;;;;;;;16.89;94.77;101456.09;1726977;82;20904;-73
2021/05/27 01:08:25;;;;;;;7.10;5.12;;;;;;;16.88;94.83;101453.09;1694348;83;21081;-72
2021/05/27 01:10:54;;;;;;;7.17;5.40;;;;;;;16.86;94.84;101454.55;1726805;82;21625;-73
2021/05/27 01:13:24;;;;;;;6.08;5.25;;;;;;;16.83;94.86;101452.17;1727021;83;20884;-72
2021/05/27 01:15:51;;;;;;;6.30;5.25;;;;;;;16.83;94.93;101456.58;1726938;83;21467;-73
2021/05/27 01:18:21;;;;;;;8.50;5.30;;;;;;;16.81;94.97;101452.78;1727022;83;20904;-72
2021/05/27 01:20:51;;;;;;;7.28;5.75;;;;;;;16.79;94.87;101456.45;1727082;83;21658;-72
2021/05/27 01:23:19;;;;;;;8.15;6.10;;;;;;;16.78;95.05;101458.23;1726992;82;20904;-74
2021/05/27 01:25:50;;;;;;;10.55;6.50;;;;;;;16.78;95.01;101450.88;1726862;82;20853;-73
2021/05/27 01:28:17;;;;;;;16.20;7.35;;;;;;;16.75;95.15;101445.38;1726978;83;21099;-72
2021/05/27 01:30:44;;;;;;;14.87;7.78;;;;;;;16.74;95.17;101440.27;1727145;82;21549;-72
2021/05/27 01:33:22;;;;;;;15.80;7.22;;;;;;;16.70;95.11;101443.61;1698107;83;21115;-73
2021/05/27 01:35:49;;;;;;;11.35;6.90;;;;;;;16.69;95.28;101441.94;1726910;83;20873;-73
2021/05/27 01:38:18;;;;;;;11.03;7.10;;;;;;;16.67;95.53;101443.86;1694431;83;20960;-73
2021/05/27 01:40:46;;;;;;;10.55;7.20;;;;;;;16.65;95.56;101443.16;1726883;83;20988;-73
2021/05/27 01:43:14;;;;;;;12.20;7.30;;;;;;;16.65;95.77;101444.94;1727033;83;21537;-73
2021/05/27 01:45:42;;;;;;;14.95;8.40;;;;;;;16.65;95.88;101437.08;1727006;83;21095;-72
2021/05/27 01:48:09;;;;;;;9.70;6.67;;;;;;;16.64;96.03;101438.86;1726985;82;20892;-73
2021/05/27 01:50:40;;;;;;;10.78;6.28;;;;;;;16.64;95.97;101438.02;1726922;82;21578;-73
2021/05/27 01:53:09;;;;;;;9.05;6.20;;;;;;;16.61;95.76;101440.41;1696722;83;20976;-73
2021/05/27 01:55:46;;;;;;;8.53;5.72;;;;;;;16.60;95.78;101443.14;1727038;82;20999;-72
2021/05/27 01:58:14;;;;;;;6.62;5.35;;;;;;;16.59;96.02;101446.73;1726678;82;21162;-72
2021/05/27 02:00:43;;;;;;;7.33;5.17;;;;;;;16.60;96.19;101447.07;1739699;82;21479;-72
2021/05/27 02:03:11;;;;;;;10.60;5.45;;;;;;;16.59;96.11;101446.23;1745901;82;20974;-72
2021/05/27 02:05:39;;;;;;;6.05;5.40;;;;;;;16.58;96.23;101439.34;1745841;82;21012;-73
2021/05/27 02:08:06;;;;;;;5.97;4.92;;;;;;;16.59;96.28;101438.37;1745905;82;21004;-72
2021/05/27 02:10:36;;;;;;;6.55;5.08;;;;;;;16.58;96.25;101443.28;1733551;82;21134;-72
2021/05/27 02:13:03;;;;;;;6.65;4.30;;;;;;;16.58;96.23;101437.20;1745857;82;20989;-73
2021/05/27 02:15:33;;;;;;;8.05;4.50;;;;;;;16.58;96.25;101435.89;1745821;81;20923;-72
2021/05/27 02:18:01;;;;;;;7.15;4.22;;;;;;;16.56;96.21;101433.37;1748162;81;21017;-72
2021/05/27 02:20:28;;;;;;;5.15;4.50;;;;;;;16.55;96.50;101442.21;1749690;81;20981;-72
2021/05/27 02:22:55;;;;;;;6.78;4.90;;;;;;;16.57;96.80;101456.48;1749939;81;21060;-73
2021/05/27 02:25:41;;;;;;;5.35;4.53;;;;;;;16.56;96.90;101446.47;1750312;81;20874;-72
2021/05/27 02:28:10;;;;;;;6.25;4.67;;;;;;;16.56;96.93;101439.92;1747827;81;21005;-72
2021/05/27 02:30:38;;;;;;;5.80;4.97;;;;;;;16.56;96.94;101439.92;1745837;82;21048;-72
2021/05/27 02:33:07;;;;;;;5.22;4.72;;;;;;;16.53;96.88;101438.83;1745885;81;20902;-72
2021/05/27 02:35:35;;;;;;;7.25;4.60;;;;;;;16.53;97.00;101440.64;1745913;82;21107;-72
2021/05/27 02:38:03;;;;;;;5.95;4.90;;;;;;;16.51;97.13;101442.52;1745820;81;21370;-72
2021/05/27 02:40:32;;;;;;;5.17;4.70;;;;;;;16.50;97.38;101439.06;1745611;81;20874;-72
2021/05/27 02:43:00;;;;;;;5.72;4.20;;;;;;;16.49;97.46;101446.59;1745521;81;21580;-72
2021/05/27 02:45:30;;;;;;;7.28;5.00;;;;;;;16.47;97.52;101444.55;1745795;81;20909;-72
2021/05/27 02:47:58;;;;;;;6.65;4.90;;;;;;;16.46;97.59;101444.69;1745908;81;21100;-71
2021/05/27 02:50:27;;;;;;;5.90;4.50;;;;;;;16.45;97.64;101444.31;1745704;82;20934;-71
2021/05/27 02:52:56;;;;;;;8.33;5.75;;;;;;;16.44;97.77;101440.86;1727051;82;20961;-71
2021/05/27 02:55:25;;;;;;;11.85;5.60;;;;;;;16.43;97.90;101441.83;1745770;82;20989;-72
2021/05/27 02:57:52;;;;;;;8.53;5.55;;;;;;;16.42;98.07;101442.77;1746092;81;21534;-72
2021/05/27 03:00:20;;;;;;;6.20;5.35;;;;;;;16.39;98.37;101443.02;1745918;81;20975;-72
2021/05/27 03:02:56;;;;;;;7.75;5.30;;;;;;;16.41;98.88;101445.03;1743307;81;21571;-72
2021/05/27 03:05:23;;;;;;;7.70;5.15;;;;;;;16.46;99.38;101445.52;1746017;82;20863;-72
2021/05/27 03:07:50;;;;;;;9.80;5.33;;;;;;;16.51;99.59;101442.05;1745973;82;20902;-72
2021/05/27 03:10:20;;;;;;;7.17;5.30;;;;;;;16.56;99.52;101440.43;1745890;82;20994;-72
2021/05/27 03:12:48;;;;;;;7.80;5.25;;;;;;;16.54;99.63;101434.42;1745901;81;20906;-72
2021/05/27 03:15:17;;;;;;;13.62;5.50;;;;;;;16.52;100.00;101431.10;1745850;81;20977;-72
2021/05/27 03:17:44;;;;;;;13.78;6.22;;;;;;;16.53;100.00;101428.84;1745979;82;21005;-72
2021/05/27 03:20:13;;;;;;;13.83;6.83;;;;;;;16.55;100.00;101421.72;1745974;82;20929;-72
2021/05/27 03:22:41;;;;;;;9.25;5.47;;;;;;;16.55;100.00;101417.31;1745967;82;20981;-72
2021/05/27 03:25:11;;;;;;;7.22;5.28;;;;;;;16.57;100.00;101426.35;1745985;82;21654;-72
2021/05/27 03:27:38;;;;;;;7.97;5.30;;;;;;;16.59;100.00;101431.02;1727064;82;20997;-72
2021/05/27 03:30:08;;;;;;;5.00;4.58;;;;;;;16.63;100.00;101435.88;1746066;81;20925;-71
2021/05/27 03:32:36;;;;;;;5.95;5.35;;;;;;;16.71;100.00;101437.42;1745919;82;21017;-73
2021/05/27 03:35:05;;;;;;;5.75;5.25;;;;;;;16.79;100.00;101453.36;1745933;82;21001;-74
2021/05/27 03:37:33;;;;;;;5.42;4.92;;;;;;;16.86;100.00;101461.58;1745980;81;22791;-74
2021/05/27 03:40:11;;;;;;;8.53;5.20;;;;;;;16.91;100.00;101470.73;1745932;82;21463;-70
2021/05/27 03:42:49;;;;;;;7.00;4.37;;;;;;;16.98;100.00;101474.17;1745862;81;21515;-72
2021/05/27 03:45:21;;;;;;;5.53;4.70;;;;;;;17.07;100.00;101469.02;1745895;81;20981;-72
2021/05/27 03:47:50;;;;;;;5.83;4.97;;;;;;;17.17;100.00;101464.71;1743734;81;20921;-73
2021/05/27 03:50:20;;;;;;;7.22;5.08;;;;;;;17.29;100.00;101472.09;1745827;82;21107;-72
2021/05/27 03:52:49;;;;;;;5.72;4.97;;;;;;;17.40;100.00;101478.59;1727190;82;20957;-72
2021/05/27 03:55:17;;;;;;;8.40;5.37;;;;;;;17.50;100.00;101482.13;1745967;82;20921;-72
2021/05/27 03:57:45;;;;;;;6.50;5.35;;;;;;;17.58;99.46;101487.60;1745917;82;21096;-72
2021/05/27 04:03:03;;;;;;;6.35;5.65;;;;;;;17.72;98.35;101486.00;1745882;82;21735;-72
2021/05/27 04:08:19;;;;;;;7.67;4.60;;;;;;;17.78;97.33;101478.08;1745915;82;21527;-75
2021/05/27 04:10:46;;;;;;;6.22;5.08;;;;;;;17.77;96.61;101471.19;1745894;81;21021;-73
2021/05/27 04:13:15;;;;;;;5.40;4.80;;;;;;;17.70;96.03;101477.43;1746028;81;21024;-72
2021/05/27 04:15:44;;;;;;;5.92;4.65;;;;;;;17.66;96.14;101480.42;1748514;82;21095;-72
2021/05/27 04:18:16;;;;;;;6.72;5.00;;;;;;;17.72;96.08;101484.69;1750277;82;20941;-72
2021/05/27 04:20:52;;;;;;;8.53;4.47;;;;;;;17.79;95.88;101483.22;1749688;81;20997;-72
2021/05/27 04:23:40;;;;;;;7.83;7.03;;;;;;;17.85;95.34;101477.94;1748998;81;20953;-74
2021/05/27 04:26:11;;;;;;;11.60;7.35;;;;;;;17.91;94.96;101478.73;1748258;82;20918;-72
2021/05/27 04:28:39;;;;;;;9.43;6.45;;;;;;;17.93;94.75;101477.63;1745990;82;21815;-72
2021/05/27 04:31:09;;;;;;;8.65;6.65;;;;;;;17.89;94.90;101478.04;1746026;82;21578;-73
2021/05/27 04:33:40;;;;;;;6.53;5.92;;;;;;;17.84;94.93;101471.84;1745319;81;21005;-72
2021/05/27 04:36:07;;;;;;;7.60;6.10;;;;;;;17.90;94.63;101467.39;1745915;81;21071;-73
2021/05/27 04:38:34;;;;;;;6.90;6.20;;;;;;;17.98;94.12;101458.88;1745908;81;21040;-72
2021/05/27 04:41:02;;;;;;;6.85;6.05;;;;;;;18.05;93.75;101457.41;1745895;82;21103;-72
2021/05/27 04:43:29;;;;;;;12.80;6.37;;;;;;;18.13;93.45;101460.67;1745860;82;20909;-72
2021/05/27 04:45:57;;;;;;;9.23;6.05;;;;;;;18.20;93.08;101457.41;1745821;81;21602;-72
2021/05/27 04:48:25;;;;;;;6.28;5.28;;;;;;;18.26;92.63;101454.25;1745954;82;20988;-72
2021/05/27 04:50:53;;;;;;;4.80;4.40;;;;;;;18.28;92.40;101451.00;1745714;81;20913;-72
2021/05/27 04:53:21;;;;;;;7.28;4.35;;;;;;;18.32;91.91;101449.78;1746002;81;21042;-72
2021/05/27 04:55:48;;;;;;;5.45;4.62;;;;;;;18.36;91.05;101444.63;1745842;81;21068;-73
2021/05/27 04:58:16;;;;;;;9.38;6.08;;;;;;;18.38;90.32;101441.84;1745833;81;20992;-72
2021/05/27 05:00:45;;;;;;;9.33;6.37;;;;;;;18.39;90.28;101440.89;1739912;80;20956;-72
2021/05/27 05:03:12;;;;;;;7.50;6.33;;;;;;;18.43;90.19;101439.67;1727065;82;20917;-72
2021/05/27 05:05:39;;;;;;;13.78;5.83;;;;;;;18.45;89.85;101443.82;1727025;82;21104;-72
2021/05/27 05:08:08;;;;;;;9.33;5.03;;;;;;;18.50;89.60;101443.47;1726817;82;21562;-72
2021/05/27 05:10:36;;;;;;;7.62;4.95;;;;;;;18.52;89.22;101444.16;1726952;83;21016;-72
2021/05/27 05:13:05;;;;;;;10.13;5.22;;;;;;;18.55;88.78;101445.67;1726952;83;21046;-72
2021/05/27 05:15:40;;;;;;;14.28;5.03;;;;;;;18.59;88.39;101441.83;1726865;82;21462;-72
2021/05/27 05:18:13;;;;;;;7.35;4.85;;;;;;;18.58;87.54;101436.21;1727024;82;21155;-73
2021/05/27 05:20:45;;;;;;;9.28;5.35;;;;;;;18.54;87.04;101444.84;1727057;83;20944;-73
2021/05/27 05:23:12;;;;;;;;;;;;;;;18.52;87.17;101441.52;1729597;82;20909;-72
2021/05/27 05:25:41;;;;;;;11.18;5.22;;;;;;;18.53;87.37;101438.42;1726756;83;20609;-73
2021/05/27 05:28:08;;;;;;;10.28;4.85;;;;;;;18.52;87.73;101440.69;1727010;83;20952;-74
2021/05/27 05:30:35;;;;;;;10.65;5.53;;;;;;;18.52;88.10;101432.80;1727053;83;21059;-72
2021/05/27 05:33:04;;;;;;;6.65;4.90;;;;;;;18.52;88.55;101431.02;1726878;82;21016;-72
2021/05/27 05:35:31;;;;;;;5.72;4.97;;;;;;;18.55;88.52;101439.11;1726730;82;20940;-74
2021/05/27 05:37:59;;;;;;;9.63;5.67;;;;;;;18.55;88.22;101442.58;1726829;82;21019;-74
2021/05/27 05:40:28;;;;;;;9.33;5.60;;;;;;;18.57;88.59;101443.77;1727159;83;20992;-78
2021/05/27 05:42:56;;;;;;;9.60;5.30;;;;;;;18.57;89.52;101452.97;1727072;83;21602;-77
2021/05/27 05:45:23;;;;;;;11.03;5.42;;;;;;;18.53;90.33;101453.72;1726970;82;20909;-77
2021/05/27 05:47:52;;;;;;;8.10;5.08;;;;;;;18.54;91.36;101453.23;1732824;80;20901;-77
2021/05/27 05:53:09;;;;;;;6.03;4.62;;;;;;;18.65;93.08;101461.84;1727081;81;20976;-77
2021/05/27 05:55:36;;;;;;;6.50;5.03;;;;;;;18.74;93.80;101469.40;1727102;82;21092;-76
2021/05/27 05:58:03;;;;;;;6.58;4.70;;;;;;;18.80;93.96;101470.17;1726485;81;20964;-78
2021/05/27 06:00:32;;;;;;;7.97;5.22;;;;;;;18.83;93.88;101477.80;1729616;80;20947;-75
2021/05/27 06:03:00;;;;;;;7.05;4.62;;;;;;;18.90;93.72;101475.81;1732130;80;20995;-78
2021/05/27 06:05:40;;;;;;;5.85;4.20;;;;;;;18.99;93.24;101478.11;1692930;83;21152;-78
2021/05/27 06:08:12;;;;;;;9.10;4.95;;;;;;;19.15;92.52;101481.53;1698083;82;21013;-78
2021/05/27 06:10:40;;;;;;;5.97;4.40;;;;;;;19.29;91.20;101472.77;1697124;84;21532;-78
2021/05/27 06:13:06;;;;;;;5.12;4.65;;;;;;;19.41;89.77;101470.86;1702130;83;20973;-75
2021/05/27 06:15:40;;;;;;;7.08;5.05;;;;;;;19.52;88.19;101478.63;1677302;81;21005;-75
2021/05/27 06:18:07;;;;;;;7.45;4.28;;;;;;;19.58;87.43;101483.81;1682758;81;21611;-72
2021/05/27 06:20:35;;;;;;;7.97;4.75;;;;;;;19.69;86.92;101485.00;1698803;82;21078;-73
2021/05/27 06:23:05;;;;;;;7.22;4.45;;;;;;;19.76;86.05;101488.23;1724918;81;21741;-74
2021/05/27 06:25:33;;;;;;;4.92;4.40;;;;;;;19.81;85.19;101480.76;1718237;81;21036;-74
2021/05/27 06:28:00;;;;;;;5.08;4.58;;;;;;;19.87;84.71;101477.56;1728873;81;21036;-74
2021/05/27 06:30:32;;;;;;;5.92;5.37;;;;;;;19.91;84.58;101472.84;1723763;82;20961;-74
2021/05/27 06:33:10;;;;;;;9.18;5.53;;;;;;;19.94;84.41;101473.36;1711449;82;21629;-73
2021/05/27 06:35:39;;;;;;;7.33;4.70;;;;;;;19.96;84.47;101460.89;1711341;83;21620;-74
2021/05/27 06:38:09;;;;;;;7.42;4.00;;;;;;;19.93;84.35;101463.81;1711354;83;21048;-74
2021/05/27 06:40:37;;;;;;;5.08;4.58;;;;;;;19.96;84.70;101469.28;1709940;82;21084;-74
2021/05/27 06:43:06;;;;;;;7.45;4.50;;;;;;;20.00;85.26;101470.67;1686862;85;21040;-73
2021/05/27 06:45:33;;;;;;;12.65;5.00;;;;;;;20.06;84.86;101468.78;1686896;83;21090;-73
2021/05/27 06:48:01;;;;;;;5.97;4.92;;;;;;;20.14;83.78;101472.83;1713299;82;21159;-73
2021/05/27 06:50:36;;;;;;;10.10;5.15;;;;;;;20.20;82.64;101472.77;1697471;82;20971;-73
2021/05/27 06:53:07;;;;;;;6.28;4.58;;;;;;;20.24;81.80;101474.95;1720383;81;20949;-73
2021/05/27 06:55:36;;;;;;;6.90;4.47;;;;;;;20.27;80.79;101467.27;1714308;82;21661;-73
2021/05/27 06:58:03;;;;;;;7.62;3.80;;;;;;;20.30;80.43;101466.98;1687105;83;21069;-72
2021/05/27 07:00:31;;;;;;;5.58;3.72;;;;;;;20.31;78.83;101458.11;1712712;83;21041;-73
2021/05/27 07:02:58;;;;;;;5.67;3.20;;;;;;;20.32;77.22;101454.03;1723366;82;21018;-73
2021/05/27 07:05:28;;;;;;;4.60;3.50;;;;;;;20.31;76.20;101452.36;1698819;83;21084;-72
2021/05/27 07:07:56;;;;;;;4.65;3.55;;;;;;;20.31;76.35;101448.41;1709151;82;21138;-72
2021/05/27 07:10:23;;;;;;;7.53;3.77;;;;;;;20.31;76.31;101453.67;1716473;83;21085;-73
2021/05/27 07:12:53;;;;;;;4.55;3.37;;;;;;;20.28;75.97;101452.65;1715794;83;21140;-72
2021/05/27 07:15:22;;;;;;;4.17;3.62;;;;;;;20.26;75.90;101453.74;1723478;83;21073;-73
2021/05/27 07:17:51;;;;;;;3.72;3.27;;;;;;;20.25;75.94;101455.54;1723540;83;21082;-73
2021/05/27 07:20:22;;;;;;;6.08;4.22;;;;;;;20.24;75.73;101461.77;1723277;82;21129;-74
2021/05/27 07:22:50;;;;;;;4.80;3.67;;;;;;;20.24;75.55;101465.73;1719453;83;22161;-73
2021/05/27 07:25:20;;;;;;;5.55;3.90;;;;;;;20.21;74.85;101461.23;1723198;83;21069;-73
2021/05/27 07:27:52;;;;;;;4.92;3.30;;;;;;;20.20;74.86;101460.91;1719662;83;21655;-73
2021/05/27 07:30:21;;;;;;;;;;;;;;;20.13;74.11;101459.33;1725636;83;21130;-72
2021/05/27 07:32:49;;;;;;;9.43;4.03;;;;;;;20.06;73.93;101454.28;1719465;83;20317;-72
2021/05/27 07:35:16;;;;;;;7.12;3.80;;;;;;;19.97;74.04;101453.83;1713986;83;21832;-72
2021/05/27 07:37:45;;;;;;;6.92;3.92;;;;;;;19.91;74.54;101451.77;1706555;83;21030;-72
2021/05/27 07:40:12;;;;;;;3.90;3.50;;;;;;;19.90;74.88;101450.09;1723410;83;21613;-80
2021/05/27 07:42:39;;;;;;;9.10;3.70;;;;;;;19.82;75.61;101452.59;1723389;83;21207;-78
2021/05/27 07:45:07;;;;;;;5.05;4.30;;;;;;;19.67;77.11;101466.70;1723663;83;21033;-74
2021/05/27 07:47:35;;;;;;;9.40;4.87;;;;;;;19.29;80.03;101468.82;1724173;82;21106;-73
2021/05/27 07:50:04;;;;;;;8.60;4.12;;;;;;;19.01;82.60;101478.83;1723326;83;21066;-74
2021/05/27 07:52:34;;;;;;;8.73;5.00;;;;;;;18.81;84.13;101471.85;1722736;83;21245;-75
2021/05/27 07:55:05;;;;;;;10.95;5.67;;;;;;;18.64;86.09;101461.96;1723471;82;21077;-74
2021/05/27 07:57:32;;;;;;;7.08;4.42;;;;;;;18.43;88.16;101472.05;1723588;83;21640;-73
2021/05/27 08:00:01;;;;;;;5.97;4.78;;;;;;;18.31;89.88;101474.42;1723575;83;21101;-73
2021/05/27 08:02:28;;;;;;;7.75;6.72;;;;;;;18.28;91.38;101475.96;1729144;82;21599;-72
2021/05/27 08:04:55;;;;;;;10.18;7.40;;;;;;;18.27;93.47;101474.80;1730889;82;21536;-79
2021/05/27 08:07:24;;;;;;;17.73;9.85;;;;;;;18.30;96.42;101465.34;1725233;81;21763;-76
2021/05/27 08:09:51;;;;;;;17.52;13.32;;;;;;;18.38;100.00;101458.92;1719008;81;21153;-75
2021/05/27 08:12:18;;;;;;;12.25;9.43;;;;;;;18.40;100.00;101447.34;1717787;83;21157;-72
2021/05/27 08:14:45;;;;;;;10.50;8.90;;;;;;;18.36;100.00;101440.68;1717261;83;21275;-79
2021/05/27 08:17:12;;;;;;;8.75;7.03;;;;;;;18.35;100.00;101439.00;1716840;83;21679;-74
2021/05/27 08:19:40;;;;;;;7.00;5.85;;;;;;;18.39;100.00;101447.46;1717271;81;21062;-76
2021/05/27 08:22:09;;;;;;;13.20;5.30;;;;;;;18.37;98.68;101446.30;1717116;82;21034;-76
2021/05/27 08:24:36;;;;;;;6.53;4.90;;;;;;;18.32;97.14;101447.16;1684918;83;21691;-72
2021/05/27 08:27:05;;;;;;;9.93;5.83;;;;;;;18.27;93.99;101450.67;1684631;85;21029;-77
2021/05/27 08:29:33;;;;;;;10.50;5.42;;;;;;;18.27;94.36;101455.09;1685031;85;21088;-70
2021/05/27 08:32:06;;;;;;;7.22;5.78;;;;;;;18.29;93.93;101459.24;1685222;83;21073;-73
2021/05/27 08:34:34;;;;;;;;;;;;;;;18.33;94.27;101459.81;1681963;85;21104;-73
2021/05/27 08:37:01;;;;;;;6.53;5.67;;;;;;;18.44;94.70;101459.23;1675274;85;21084;-77
2021/05/27 08:39:34;;;;;;;6.03;5.47;;;;;;;18.56;93.74;101457.87;1676422;84;21074;-76
2021/05/27 08:42:01;;;;;;;7.53;5.42;;;;;;;18.57;93.05;101460.86;1678558;84;21169;-78
2021/05/27 08:44:28;;;;;;;8.05;5.58;;;;;;;18.60;93.52;101451.39;1740898;81;22448;-78
2021/05/27 08:46:55;;;;;;;6.50;5.87;;;;;;;18.67;92.55;101459.06;1708009;81;21043;-75
2021/05/27 08:49:24;;;;;;;6.78;5.45;;;;;;;18.73;92.33;101449.36;1751210;81;21083;-71
2021/05/27 08:51:52;;;;;;;6.28;5.67;;;;;;;18.81;93.10;101449.50;1750797;81;21148;-78
2021/05/27 08:54:20;;;;;;;7.37;6.08;;;;;;;18.96;92.08;101452.08;1750464;80;21015;-75
2021/05/27 08:56:50;;;;;;;7.67;5.53;;;;;;;19.05;91.39;101446.51;1737696;81;21055;-76
2021/05/27 08:59:17;;;;;;;7.12;5.90;;;;;;;19.23;91.21;101439.11;1724964;81;21123;-81
2021/05/27 09:02:07;;;;;;;7.80;5.80;;;;;;;19.36;89.63;101437.52;1729692;81;21223;-73
2021/05/27 09:04:34;;;;;;;6.55;5.53;;;;;;;19.46;89.43;101438.38;1686120;82;21676;-76
2021/05/27 09:07:03;;;;;;;6.03;5.17;;;;;;;19.67;88.68;101432.94;1707988;81;21008;-75
2021/05/27 09:09:56;;;;;;;7.22;5.47;;;;;;;19.82;87.74;101436.30;1740211;81;21162;-76
2021/05/27 09:12:34;;;;;;;6.35;5.42;;;;;;;20.02;87.81;101439.24;1750620;80;21057;-74
2021/05/27 09:15:19;;;;;;;6.67;5.00;;;;;;;20.30;86.75;101447.22;1750867;80;21503;-75
2021/05/27 09:17:52;;;;;;;5.58;5.08;;;;;;;20.51;85.10;101447.35;1748818;81;37734;-76
2021/05/27 09:20:29;;;;;;;6.85;5.08;;;;;;;20.63;81.47;101452.41;1750645;81;21019;-72
2021/05/27 09:23:15;;;;;;;7.62;5.20;;;;;;;20.66;80.70;101454.76;1750672;80;21154;-72
2021/05/27 09:25:47;;;;;;;5.22;4.72;;;;;;;20.73;80.31;101456.67;1751540;80;20916;-72
2021/05/27 09:28:23;;;;;;;;;;;;;;;20.82;78.51;101464.18;1753928;81;21175;-75
2021/05/27 09:30:56;;;;;;;4.58;4.17;;;;;;;20.85;78.25;101466.03;1731814;81;20229;-77
2021/05/27 09:33:31;;;;;;;4.33;3.75;;;;;;;20.79;76.43;101460.52;1730163;81;21111;-75
2021/05/27 09:36:09;;;;;;;3.85;3.52;;;;;;;20.73;76.10;101457.98;1725816;82;21035;-74
2021/05/27 09:38:39;;;;;;;5.42;4.08;;;;;;;20.80;75.72;101458.23;1731492;81;21075;-73
2021/05/27 09:41:22;;;;;;;5.75;3.75;;;;;;;20.88;74.61;101454.34;1727924;81;21461;-74
2021/05/27 09:43:54;;;;;;;5.37;3.77;;;;;;;20.94;74.23;101447.16;1735115;81;20996;-79
2021/05/27 09:46:22;;;;;;;4.45;3.60;;;;;;;21.03;73.38;101447.09;1710452;81;20964;-77
2021/05/27 09:49:05;;;;;;;6.78;3.75;;;;;;;21.03;73.47;101439.17;1721375;82;21070;-77
2021/05/27 09:51:32;;;;;;;3.70;3.30;;;;;;;21.12;73.05;101441.94;1686660;83;21103;-77
2021/05/27 09:54:00;;;;;;;3.72;3.27;;;;;;;21.22;72.01;101436.10;1724567;83;21659;-74
2021/05/27 09:56:39;;;;;;;3.67;3.37;;;;;;;21.17;70.14;101435.22;1724013;83;21015;-75
2021/05/27 09:59:08;;;;;;;4.37;3.98;;;;;;;21.25;69.93;101438.44;1721486;82;21545;-74
2021/05/27 10:01:35;;;;;;;4.28;3.87;;;;;;;21.32;70.20;101439.47;1724295;81;21046;-75
2021/05/27 10:04:16;;;;;;;4.08;3.10;;;;;;;21.44;70.75;101439.59;1733771;81;20980;-74
2021/05/27 10:06:44;;;;;;;4.37;3.50;;;;;;;21.51;69.71;101448.06;1730670;81;21627;-75
2021/05/27 10:09:11;;;;;;;4.25;3.85;;;;;;;21.72;68.31;101435.85;1692409;83;21681;-75
2021/05/27 10:11:39;;;;;;;4.92;3.60;;;;;;;21.86;66.71;101431.80;1764811;81;21596;-81
2021/05/27 10:14:11;;;;;;;4.58;3.20;;;;;;;21.94;66.87;101434.53;1757816;81;21046;-76
2021/05/27 10:16:40;;;;;;;3.87;3.58;;;;;;;22.01;66.91;101435.09;1701044;82;21696;-77
2021/05/27 10:19:09;;;;;;;5.62;3.62;;;;;;;22.32;66.93;101439.86;1701913;84;21114;-74
2021/05/27 10:21:38;;;;;;;10.28;5.17;;;;;;;22.53;66.14;101435.81;1735321;81;21150;-73
2021/05/27 10:24:07;;;;;;;7.58;4.10;;;;;;;22.89;64.98;101430.33;1749190;81;21041;-75
2021/05/27 10:26:35;;;;;;;26.77;6.22;;;;;;;22.99;63.73;101425.23;1730784;82;21014;-79
2021/05/27 10:29:04;;;;;;;39.90;7.37;;;;;;;23.11;63.98;101419.11;1730486;82;21025;-75
2021/05/27 10:31:37;;;;;;;14.10;4.85;;;;;;;23.06;62.42;101417.47;1730577;82;21736;-75
2021/05/27 10:34:02;;;;;;;8.68;4.50;;;;;;;22.95;63.11;101411.98;1729561;82;21628;-75
2021/05/27 10:36:44;;;;;;;6.35;3.45;;;;;;;22.99;62.98;101401.89;1730194;82;21642;-76
2021/05/27 10:39:31;;;;;;;8.65;3.50;;;;;;;23.04;63.03;101403.54;1729850;81;21085;-80
2021/05/27 10:41:59;;;;;;;6.03;3.45;;;;;;;23.10;61.91;101397.09;1705414;82;21689;-74
2021/05/27 10:44:28;;;;;;;9.43;3.80;;;;;;;23.08;61.70;101398.26;1730571;82;21200;-76
2021/05/27 10:47:00;;;;;;;3.85;3.17;;;;;;;23.14;62.26;101396.28;1730577;82;21034;-78
2021/05/27 10:49:45;;;;;;;3.72;3.22;;;;;;;23.33;60.84;101389.81;1730286;82;21383;-73
2021/05/27 10:52:51;;;;;;;6.50;3.00;;;;;;;23.44;59.19;101379.77;1730831;82;21080;-77
2021/05/27 10:55:55;;;;;;;5.10;3.10;;;;;;;23.47;58.24;101376.78;1730838;82;21066;-75
2021/05/27 10:58:49;;;;;;;4.00;2.92;;;;;;;23.56;57.89;101372.28;1730410;81;21098;-76
2021/05/27 11:01:34;;;;;;;4.20;2.90;;;;;;;23.68;58.67;101370.94;1726013;82;21029;-74
2021/05/27 11:04:04;;;;;;;5.20;3.00;;;;;;;23.87;58.14;101375.86;1727981;81;20996;-76
2021/05/27 11:06:40;;;;;;;4.33;3.72;;;;;;;24.02;57.99;101371.52;1725361;83;20997;-77
2021/05/27 11:09:16;;;;;;;4.65;3.10;;;;;;;24.16;56.80;101368.66;1735315;81;20976;-78
2021/05/27 11:11:53;;;;;;;3.80;2.58;;;;;;;24.21;55.99;101366.34;1744592;81;21067;-82
2021/05/27 11:14:34;;;;;;;5.05;2.55;;;;;;;24.26;56.19;101368.45;1739138;81;21044;-76
2021/05/27 11:17:18;;;;;;;4.67;3.00;;;;;;;24.37;54.65;101364.94;1742932;81;21014;-77
2021/05/27 11:25:20;;;;;;;3.22;2.92;;;;;;;24.80;53.02;101362.17;1745192;81;21090;-75
2021/05/27 11:28:13;;;;;;;4.83;2.70;;;;;;;24.77;54.09;101369.16;1743507;81;20936;-77
2021/05/27 11:30:47;;;;;;;4.35;2.67;;;;;;;24.95;53.47;101370.25;1741555;81;21557;-73
2021/05/27 11:33:34;;;;;;;3.67;2.35;;;;;;;25.14;51.27;101359.94;1743611;81;21070;-74
2021/05/27 11:36:05;;;;;;;3.45;2.80;;;;;;;25.39;50.30;101351.77;1731332;81;21011;-80
2021/05/27 11:38:36;;;;;;;3.72;2.72;;;;;;;25.51;50.79;101350.34;1737946;81;21086;-77
2021/05/27 11:41:18;;;;;;;3.75;2.60;;;;;;;25.53;51.28;101349.16;1732653;81;21020;-70
2021/05/27 11:43:53;;;;;;;3.22;2.75;;;;;;;25.51;50.88;101341.87;1730167;81;21623;-76
2021/05/27 11:46:30;;;;;;;2.30;2.10;;;;;;;25.53;50.59;101336.36;1753405;80;21066;-75
2021/05/27 11:48:58;;;;;;;3.83;2.70;;;;;;;25.52;50.77;101334.73;1753500;81;21656;-78
2021/05/27 11:51:33;;;;;;;3.50;2.60;;;;;;;25.41;50.93;101338.62;1753634;81;21604;-77
2021/05/27 11:54:05;;;;;;;3.47;2.98;;;;;;;25.25;51.24;101340.10;1744322;81;21130;-75
2021/05/27 11:56:44;;;;;;;5.37;3.05;;;;;;;25.09;52.41;101338.91;1702096;81;21079;-73